Vremea acum in Calarasi - Romania

Vrei sa afli care e starea vremii acum in Calarasi - Romania? Dorim sa iti furnizam starea vremii pentru Calarasi - Romania. Starea vremii Calarasi - Romania pentru astazi.

Vremea acum in Calarasi

Temperatura: 2 °C

Se simte ca: -3.7 °C
Innorat: 60 %
Precipitatii: 27 %
Presiune atmosferica: 1021 hPa
Umiditate: 100%
Vizibilitate: 0.4 km
Vantul bate din NE cu 28.1 km/h

Evolutia vremii in Calarasi pe ore

Ora: 13:00
Ploi uşoare
Temperatura: 2.9°C
Sansa de precipitatii: 27%
Ora Descriere Temp Se simte Precipitatii Umiditate Vant
00:00Ploi uşoare-3.7°-5.5°49%84%ENE 22 KM/H
01:00Ploi uşoare-1.2°-4.9°54%85%ENE 23 KM/H
02:00Ploi uşoare1.3°-4.2°81%87%ENE 24.5 KM/H
03:00Ploi uşoare1.3°-4.3°83%88%ENE 25.2 KM/H
04:00Ploi uşoare1.2°-4.4°86%90%ENE 25.6 KM/H
05:00Ploi uşoare1.2°-4.5°88%91%ENE 26.3 KM/H
06:00Ploi uşoare1.3°-4.4°79%92%NE 26.6 KM/H
07:00Ploi uşoare1.4°-4.4°69%92%NE 27.4 KM/H
08:00Ploi uşoare1.5°-4.3°60%93%NE 27.7 KM/H
09:00Ploi uşoare1.7°-4°67%94%NE 27.4 KM/H
10:00Ploi uşoare-3.6°74%94%NE 27 KM/H
11:00Ploi uşoare2.2°-3.3°81%95%NE 26.6 KM/H
12:00Cer acoperit2.5°-2.8°54%95%NE 25.9 KM/H
13:00Ploi uşoare2.9°-2.3°27%96%NE 25.6 KM/H
14:00Cer acoperit3.2°-1.8°0%97%NE 24.8 KM/H
15:00Ploi uşoare3.6°-1.1°25%97%NE 24.1 KM/H
16:00Cer acoperit4.1°-0.5°51%97%NE 23 KM/H
17:00Ploi uşoare4.5°0.2°76%97%ENE 22.3 KM/H
18:00Ploi uşoare3.8°78%96%ENE 22.7 KM/H
19:00Ploi uşoare3.2°1.7°81%95%ENE 23.4 KM/H
20:00Ploi uşoare2.5°2.5°83%95%ENE 23.8 KM/H
21:00Ploi uşoare0.8°0.8°55%95%ENE 23 KM/H
22:00Ploi uşoare-0.8°-0.8°56%95%ENE 22.3 KM/H
23:00Ploi uşoare-2.5°-2.5°84%95%ENE 21.6 KM/H